Time;durP1;ratioP1;P1;durP2;ratioP2;P2;SDS_P1;SDS_P2;PMS_P1;PMS_P2;Temp;Humidity;BMP_temperature;BMP_pressure;BME280_temperature;BME280_humidity;BME280_pressure;Samples;Min_cycle;Max_cycle;Signal;HPM_P1;HPM_P2
2023/05/12 00:01:29;;;;;;;2.97;2.67;;;16.00;32.30;;;;;;5055340;28;20138;-74
2023/05/12 00:03:55;;;;;;;3.35;2.60;;;16.00;32.30;;;;;;5055369;28;20146;-74
2023/05/12 00:06:21;;;;;;;2.90;2.50;;;16.00;32.30;;;;;;5053768;28;20033;-74
2023/05/12 00:08:46;;;;;;;4.13;2.40;;;15.90;32.30;;;;;;5055087;28;20025;-74
2023/05/12 00:11:12;;;;;;;4.38;2.78;;;16.00;32.50;;;;;;5055346;28;20108;-74
2023/05/12 00:13:38;;;;;;;5.22;2.85;;;16.00;32.50;;;;;;5055074;28;20440;-75
2023/05/12 00:16:04;;;;;;;4.60;3.00;;;15.90;32.50;;;;;;5054836;28;20044;-74
2023/05/12 00:18:30;;;;;;;3.85;2.97;;;16.00;32.80;;;;;;5054978;28;20478;-74
2023/05/12 00:20:56;;;;;;;4.82;3.03;;;15.90;32.70;;;;;;5054733;28;20052;-74
2023/05/12 00:23:22;;;;;;;4.90;3.08;;;15.90;32.80;;;;;;5054847;28;20096;-74
2023/05/12 00:25:47;;;;;;;5.15;2.90;;;15.90;32.90;;;;;;5054957;28;20033;-75
2023/05/12 00:28:13;;;;;;;4.65;2.90;;;15.90;32.90;;;;;;5053377;28;20024;-74
2023/05/12 00:30:39;;;;;;;3.60;3.00;;;15.90;33.10;;;;;;5054789;28;20053;-74
2023/05/12 00:33:05;;;;;;;3.83;2.80;;;15.90;33.00;;;;;;5054586;28;20037;-74
2023/05/12 00:35:31;;;;;;;3.33;2.70;;;15.90;33.10;;;;;;5054553;28;20029;-75
2023/05/12 00:37:56;;;;;;;3.75;3.10;;;15.90;33.20;;;;;;5053493;28;20029;-75
2023/05/12 00:40:22;;;;;;;3.88;2.55;;;15.90;33.30;;;;;;5054830;28;20032;-75
2023/05/12 00:42:48;;;;;;;4.15;3.08;;;15.90;33.40;;;;;;5054509;28;20051;-74
2023/05/12 00:45:14;;;;;;;3.45;2.75;;;15.90;33.50;;;;;;5053150;28;20429;-75
2023/05/12 00:47:39;;;;;;;3.70;2.60;;;15.80;33.50;;;;;;5054669;28;20033;-73
2023/05/12 00:50:07;;;;;;;5.72;2.90;;;15.80;33.50;;;;;;5055011;28;20021;-73
2023/05/12 00:52:34;;;;;;;3.35;2.55;;;15.80;33.50;;;;;;5053274;28;20033;-73
2023/05/12 00:55:00;;;;;;;4.82;2.83;;;15.80;33.70;;;;;;5054375;28;20017;-73
2023/05/12 00:57:29;;;;;;;3.17;2.60;;;15.80;33.70;;;;;;5054175;28;20463;-74
2023/05/12 00:59:54;;;;;;;3.38;2.63;;;15.80;33.70;;;;;;5054163;28;20375;-73
2023/05/12 01:02:21;;;;;;;3.10;2.78;;;15.80;33.80;;;;;;5053990;28;20029;-74
2023/05/12 01:04:48;;;;;;;2.65;2.38;;;15.80;33.80;;;;;;5052898;28;20033;-74
2023/05/12 01:07:24;;;;;;;3.55;2.60;;;15.80;34.10;;;;;;5054259;28;20471;-74
2023/05/12 01:09:57;;;;;;;3.03;2.60;;;15.80;34.30;;;;;;5054204;28;20399;-74
2023/05/12 01:12:24;;;;;;;3.15;2.72;;;15.80;34.10;;;;;;5054103;28;20111;-74
2023/05/12 01:14:51;;;;;;;3.65;2.72;;;15.80;34.20;;;;;;5052525;28;20478;-74
2023/05/12 01:17:21;;;;;;;3.03;2.72;;;15.80;34.30;;;;;;5053692;28;20036;-73
2023/05/12 01:19:58;;;;;;;3.70;2.60;;;15.80;34.50;;;;;;5053968;28;20021;-74
2023/05/12 01:22:27;;;;;;;4.30;2.60;;;15.70;34.60;;;;;;5053656;28;20028;-74
2023/05/12 01:24:57;;;;;;;2.97;2.55;;;15.70;34.60;;;;;;5053634;28;20525;-74
2023/05/12 01:27:26;;;;;;;3.33;2.80;;;15.70;34.80;;;;;;5052262;28;20036;-74
2023/05/12 01:29:53;;;;;;;3.30;2.63;;;15.70;34.90;;;;;;5052414;28;20067;-74
2023/05/12 01:32:20;;;;;;;4.53;2.70;;;15.70;35.10;;;;;;5053801;28;20032;-74
2023/05/12 01:34:46;;;;;;;3.42;2.83;;;15.70;35.20;;;;;;5053855;28;20032;-74
2023/05/12 01:37:11;;;;;;;3.08;2.72;;;15.60;35.20;;;;;;5053866;28;20029;-75
2023/05/12 01:39:37;;;;;;;3.83;2.90;;;15.60;35.50;;;;;;5053628;28;20033;-74
2023/05/12 01:42:06;;;;;;;3.55;2.90;;;15.60;35.60;;;;;;5053577;28;20375;-74
2023/05/12 01:44:32;;;;;;;3.53;2.83;;;15.60;35.70;;;;;;5053564;28;20090;-75
2023/05/12 01:46:58;;;;;;;3.03;2.72;;;15.60;35.80;;;;;;5053433;28;20040;-74
2023/05/12 01:49:23;;;;;;;4.10;2.90;;;15.50;35.80;;;;;;5053287;28;20025;-74
2023/05/12 01:51:49;;;;;;;3.20;2.80;;;15.50;36.10;;;;;;5052093;28;20104;-74
2023/05/12 01:54:15;;;;;;;4.50;2.88;;;15.50;36.80;;;;;;5052271;28;20033;-74
2023/05/12 01:56:40;;;;;;;3.50;2.80;;;15.50;36.20;;;;;;5053252;28;20033;-74
2023/05/12 01:59:06;;;;;;;4.10;3.10;;;15.50;36.40;;;;;;5055508;28;20116;-74
2023/05/12 02:01:32;;;;;;;3.72;2.92;;;15.50;36.50;;;;;;5055985;28;20040;-74
2023/05/12 02:03:58;;;;;;;3.60;2.83;;;15.40;36.50;;;;;;5054301;28;20033;-74
2023/05/12 02:06:25;;;;;;;3.38;2.67;;;15.40;36.60;;;;;;5055603;28;20079;-74
2023/05/12 02:08:51;;;;;;;3.85;3.03;;;15.40;36.70;;;;;;5056261;28;20032;-74
2023/05/12 02:11:16;;;;;;;3.53;3.00;;;15.40;37.10;;;;;;5057383;28;20078;-75
2023/05/12 02:13:45;;;;;;;2.97;2.60;;;15.40;36.90;;;;;;5057501;28;20425;-74
2023/05/12 02:16:11;;;;;;;3.65;2.80;;;15.30;36.90;;;;;;5057087;28;20471;-74
2023/05/12 02:18:37;;;;;;;3.38;2.80;;;15.40;37.10;;;;;;5057485;28;20044;-74
2023/05/12 02:21:03;;;;;;;3.30;2.65;;;15.30;36.90;;;;;;5057026;28;20029;-74
2023/05/12 02:23:29;;;;;;;3.47;2.97;;;15.40;36.90;;;;;;5056108;28;20032;-74
2023/05/12 02:25:55;;;;;;;4.00;2.92;;;15.40;37.10;;;;;;5056893;28;20456;-74
2023/05/12 02:28:20;;;;;;;3.60;3.00;;;15.40;37.10;;;;;;5058530;28;20463;-75
2023/05/12 02:30:48;;;;;;;3.30;2.78;;;15.40;37.10;;;;;;5057061;28;20060;-75
2023/05/12 02:33:18;;;;;;;4.05;2.80;;;15.40;37.30;;;;;;5055752;28;20074;-75
2023/05/12 02:35:44;;;;;;;3.42;2.80;;;15.40;37.30;;;;;;5055556;28;20036;-74
2023/05/12 02:38:10;;;;;;;3.13;2.70;;;15.30;37.40;;;;;;5056920;28;20037;-75
2023/05/12 02:40:35;;;;;;;3.60;2.58;;;15.40;37.50;;;;;;5056714;28;20047;-75
2023/05/12 02:43:01;;;;;;;4.00;2.70;;;15.40;37.60;;;;;;5054108;28;20029;-75
2023/05/12 02:45:27;;;;;;;4.10;2.88;;;15.40;37.50;;;;;;5056768;28;20040;-75
2023/05/12 02:47:53;;;;;;;3.85;3.03;;;15.40;37.50;;;;;;5056551;28;20052;-75
2023/05/12 02:50:20;;;;;;;3.80;2.97;;;15.40;37.70;;;;;;5056656;28;20106;-75
2023/05/12 02:52:49;;;;;;;4.18;2.78;;;15.40;37.70;;;;;;5055090;28;20025;-75
2023/05/12 02:55:15;;;;;;;2.92;2.63;;;15.40;37.70;;;;;;5055857;28;20029;-75
2023/05/12 02:57:42;;;;;;;3.50;2.85;;;15.40;37.70;;;;;;5055807;28;20037;-75
2023/05/12 03:00:09;;;;;;;4.22;2.88;;;15.40;37.70;;;;;;5055648;28;20079;-75
2023/05/12 03:02:37;;;;;;;4.47;3.15;;;15.40;37.80;;;;;;5055530;28;20041;-75
2023/05/12 03:05:03;;;;;;;3.22;2.80;;;15.50;37.80;;;;;;5056323;28;20025;-75
2023/05/12 03:07:29;;;;;;;4.70;3.08;;;15.50;37.80;;;;;;5056136;28;20463;-75
2023/05/12 03:09:56;;;;;;;3.88;3.00;;;15.50;37.80;;;;;;5056147;28;20029;-75
2023/05/12 03:12:21;;;;;;;3.78;3.00;;;15.50;37.80;;;;;;5055013;28;20083;-75
2023/05/12 03:14:47;;;;;;;4.00;3.00;;;15.50;37.90;;;;;;5056196;28;20021;-75
2023/05/12 03:17:13;;;;;;;3.92;3.03;;;15.50;38.00;;;;;;5039065;28;20466;-75
2023/05/12 03:19:38;;;;;;;5.20;3.00;;;15.50;38.10;;;;;;5036253;28;20088;-75
2023/05/12 03:22:06;;;;;;;4.40;2.95;;;15.50;38.00;;;;;;5034931;28;20029;-75
2023/05/12 03:24:32;;;;;;;3.50;3.10;;;15.50;38.10;;;;;;5036791;28;20025;-75
2023/05/12 03:26:59;;;;;;;3.28;2.97;;;15.50;38.10;;;;;;5035128;28;20392;-75
2023/05/12 03:29:25;;;;;;;3.45;2.88;;;15.60;38.30;;;;;;5036001;28;20061;-74
2023/05/12 03:31:51;;;;;;;3.97;2.97;;;15.50;38.20;;;;;;5038509;28;20033;-74
2023/05/12 03:34:17;;;;;;;3.10;2.80;;;15.60;38.30;;;;;;5036000;28;20025;-74
2023/05/12 03:36:42;;;;;;;3.15;2.60;;;15.60;38.40;;;;;;5043577;28;20463;-74
2023/05/12 03:39:08;;;;;;;3.65;2.83;;;15.60;38.40;;;;;;5043371;28;20064;-74
2023/05/12 03:41:34;;;;;;;3.20;2.80;;;15.60;38.40;;;;;;5043913;28;20025;-74
2023/05/12 03:44:00;;;;;;;4.60;3.22;;;15.60;38.50;;;;;;5041886;28;20040;-74
2023/05/12 03:46:26;;;;;;;3.78;2.88;;;15.70;38.60;;;;;;5045775;28;20109;-74
2023/05/12 03:48:52;;;;;;;3.60;3.05;;;15.70;38.70;;;;;;5043809;28;20389;-74
2023/05/12 03:51:18;;;;;;;3.40;2.92;;;15.70;38.70;;;;;;5045950;28;20021;-75
2023/05/12 03:53:46;;;;;;;3.90;2.90;;;15.70;38.90;;;;;;5036073;28;20083;-73
2023/05/12 03:56:14;;;;;;;5.40;2.90;;;15.70;38.90;;;;;;5035605;28;20112;-73
2023/05/12 03:58:40;;;;;;;3.15;2.85;;;15.70;38.90;;;;;;5052938;28;20024;-73
2023/05/12 04:01:05;;;;;;;3.53;2.80;;;15.70;39.10;;;;;;5054294;28;20086;-69
2023/05/12 04:03:31;;;;;;;5.60;3.05;;;15.70;39.20;;;;;;5054552;28;20390;-72
2023/05/12 04:05:58;;;;;;;3.83;3.30;;;15.80;39.50;;;;;;5053259;28;20029;-71
2023/05/12 04:08:24;;;;;;;3.00;2.70;;;15.80;39.60;;;;;;5036694;28;20037;-72
2023/05/12 04:10:53;;;;;;;2.85;2.50;;;15.80;39.40;;;;;;5045160;28;20102;-72
2023/05/12 04:13:19;;;;;;;4.55;3.15;;;15.90;39.40;;;;;;5043148;28;20036;-72
2023/05/12 04:15:44;;;;;;;3.92;2.58;;;15.90;39.50;;;;;;5043628;28;20383;-74
2023/05/12 04:18:10;;;;;;;4.20;3.00;;;16.00;39.40;;;;;;5044713;28;20037;-73
2023/05/12 04:20:36;;;;;;;2.72;2.50;;;16.00;39.40;;;;;;5042430;28;20029;-72
2023/05/12 04:23:01;;;;;;;4.28;2.67;;;16.00;39.50;;;;;;5044224;28;20391;-72
2023/05/12 04:25:27;;;;;;;4.32;2.67;;;16.10;39.60;;;;;;5034135;28;20387;-72
2023/05/12 04:27:52;;;;;;;3.85;2.92;;;16.10;39.60;;;;;;5034079;28;20036;-72
2023/05/12 04:30:18;;;;;;;3.80;2.90;;;16.10;39.60;;;;;;5033840;28;20061;-72
2023/05/12 04:32:44;;;;;;;4.15;3.20;;;16.20;39.70;;;;;;5034080;28;20025;-72
2023/05/12 04:35:09;;;;;;;3.92;3.00;;;16.20;39.70;;;;;;5033819;28;20037;-72
2023/05/12 04:37:35;;;;;;;3.53;2.90;;;16.30;39.70;;;;;;5033950;28;20060;-73
2023/05/12 04:40:01;;;;;;;3.30;2.78;;;16.30;39.70;;;;;;5036015;28;20414;-70
2023/05/12 04:42:27;;;;;;;3.53;2.90;;;16.30;39.80;;;;;;5054172;28;20029;-71
2023/05/12 04:44:53;;;;;;;3.75;2.92;;;16.40;39.80;;;;;;5054409;28;20025;-72
2023/05/12 04:47:18;;;;;;;3.88;3.20;;;16.40;40.40;;;;;;5054628;28;20033;-73
2023/05/12 04:49:44;;;;;;;3.95;2.88;;;16.40;39.80;;;;;;5054654;28;20517;-70
2023/05/12 04:52:09;;;;;;;2.55;2.35;;;16.50;39.90;;;;;;5054981;28;20472;-72
2023/05/12 04:54:35;;;;;;;4.00;2.72;;;16.50;40.00;;;;;;5054666;28;20379;-73
2023/05/12 04:57:01;;;;;;;2.58;2.38;;;16.60;40.00;;;;;;5054141;28;20033;-73
2023/05/12 04:59:27;;;;;;;4.03;2.95;;;16.60;40.00;;;;;;5054175;28;20025;-72
2023/05/12 05:01:52;;;;;;;4.25;3.10;;;16.60;40.20;;;;;;5054353;28;20033;-72
2023/05/12 05:04:18;;;;;;;4.38;3.00;;;16.60;40.20;;;;;;5053994;28;20035;-72
2023/05/12 05:06:44;;;;;;;4.13;2.70;;;16.60;40.30;;;;;;5054214;28;20036;-72
2023/05/12 05:09:10;;;;;;;3.63;2.92;;;16.60;40.30;;;;;;5054315;28;20024;-72
2023/05/12 05:11:35;;;;;;;3.17;2.55;;;16.60;40.50;;;;;;5054148;28;20025;-72
2023/05/12 05:14:01;;;;;;;4.18;2.70;;;16.60;40.50;;;;;;5053877;28;20025;-72
2023/05/12 05:16:27;;;;;;;4.18;2.80;;;16.60;40.60;;;;;;5052332;28;20055;-71
2023/05/12 05:18:53;;;;;;;2.95;2.50;;;16.60;40.50;;;;;;5053838;28;20080;-72
2023/05/12 05:21:18;;;;;;;3.83;2.38;;;16.70;40.60;;;;;;5054185;28;20064;-72
2023/05/12 05:23:44;;;;;;;3.00;2.65;;;16.70;40.70;;;;;;5053908;28;20025;-71
2023/05/12 05:26:10;;;;;;;5.13;2.40;;;16.70;40.70;;;;;;5053862;28;20371;-72
2023/05/12 05:28:38;;;;;;;2.50;2.30;;;16.80;40.70;;;;;;5053782;28;20033;-72
2023/05/12 05:31:04;;;;;;;3.15;2.22;;;16.80;40.70;;;;;;5054037;28;20464;-72
2023/05/12 05:33:31;;;;;;;2.72;2.50;;;16.80;40.70;;;;;;5054106;28;20033;-71
2023/05/12 05:35:56;;;;;;;3.47;2.50;;;16.90;40.70;;;;;;5053731;28;20572;-73
2023/05/12 05:38:22;;;;;;;2.95;2.42;;;16.90;40.70;;;;;;5053776;28;20120;-71
2023/05/12 05:40:48;;;;;;;3.95;2.40;;;16.90;40.90;;;;;;5052824;28;20029;-72
2023/05/12 05:43:13;;;;;;;2.45;2.10;;;16.90;40.90;;;;;;5053726;28;20517;-71
2023/05/12 05:45:39;;;;;;;3.72;2.60;;;16.90;40.90;;;;;;5053360;28;20025;-71
2023/05/12 05:48:05;;;;;;;3.33;2.40;;;16.90;41.00;;;;;;5053420;28;20028;-71
2023/05/12 05:50:31;;;;;;;5.25;2.67;;;16.90;40.90;;;;;;5053305;28;20032;-72
2023/05/12 05:52:57;;;;;;;2.92;2.40;;;17.00;41.60;;;;;;5052043;28;20477;-71
2023/05/12 05:55:23;;;;;;;3.05;2.17;;;17.10;40.90;;;;;;5053273;28;20029;-72
2023/05/12 05:57:48;;;;;;;3.35;2.17;;;17.10;40.80;;;;;;5053254;28;20115;-73
2023/05/12 06:00:14;;;;;;;2.60;2.40;;;17.10;40.70;;;;;;5053124;28;20029;-73
2023/05/12 06:02:40;;;;;;;2.50;2.30;;;17.10;40.70;;;;;;5053355;28;20040;-72
2023/05/12 06:05:06;;;;;;;2.83;2.40;;;17.20;40.70;;;;;;5053199;28;20480;-70
2023/05/12 06:07:32;;;;;;;4.13;2.40;;;17.20;40.70;;;;;;5052128;28;20422;-71
2023/05/12 06:09:58;;;;;;;3.15;2.40;;;17.20;40.50;;;;;;5052194;28;20379;-72
2023/05/12 06:12:24;;;;;;;2.20;2.00;;;17.20;40.50;;;;;;5053127;28;20025;-72
2023/05/12 06:14:50;;;;;;;2.38;2.17;;;17.20;40.50;;;;;;5053167;28;20474;-72
2023/05/12 06:17:16;;;;;;;2.53;2.17;;;17.30;40.40;;;;;;5052871;28;20528;-70
2023/05/12 06:19:46;;;;;;;4.05;2.22;;;17.30;40.30;;;;;;5053336;28;20041;-74
2023/05/12 06:22:12;;;;;;;3.28;2.10;;;17.30;40.20;;;;;;5053289;28;20021;-72
2023/05/12 06:24:38;;;;;;;3.28;1.88;;;17.40;40.10;;;;;;5053363;28;20383;-71
2023/05/12 06:27:04;;;;;;;4.43;2.50;;;17.40;40.10;;;;;;5053373;28;20025;-73
2023/05/12 06:29:29;;;;;;;2.38;2.10;;;17.40;39.90;;;;;;5053288;28;20040;-72
2023/05/12 06:31:55;;;;;;;2.33;2.00;;;17.50;39.90;;;;;;5053722;28;20549;-71
2023/05/12 06:34:21;;;;;;;3.58;1.90;;;17.50;39.80;;;;;;5053657;28;20040;-71
2023/05/12 06:36:46;;;;;;;2.22;2.00;;;17.50;39.70;;;;;;5053080;28;20029;-72
2023/05/12 06:39:12;;;;;;;1.83;1.73;;;17.60;39.70;;;;;;5053420;28;20044;-71
2023/05/12 06:41:38;;;;;;;2.83;2.10;;;17.60;39.60;;;;;;5053003;28;20528;-71
2023/05/12 06:44:05;;;;;;;2.17;2.00;;;17.60;39.60;;;;;;5052811;28;20023;-72
2023/05/12 06:46:31;;;;;;;2.95;2.20;;;17.60;39.60;;;;;;5053104;28;20110;-72
2023/05/12 06:48:57;;;;;;;2.53;2.17;;;17.70;39.60;;;;;;5053484;28;20025;-72
2023/05/12 06:51:22;;;;;;;2.17;1.98;;;17.70;39.50;;;;;;5053734;28;20021;-72
2023/05/12 06:53:48;;;;;;;3.17;2.10;;;17.70;40.10;;;;;;5056611;28;20075;-73
2023/05/12 06:56:15;;;;;;;2.20;1.92;;;17.80;39.50;;;;;;5055094;28;20033;-71
2023/05/12 06:58:42;;;;;;;2.28;2.08;;;17.80;39.50;;;;;;5056300;28;20033;-71
2023/05/12 07:01:08;;;;;;;2.38;2.00;;;17.80;39.40;;;;;;5056301;28;20021;-72
2023/05/12 07:03:33;;;;;;;2.40;2.20;;;17.90;39.40;;;;;;5056454;28;20036;-71
2023/05/12 07:05:59;;;;;;;2.75;2.30;;;17.90;39.40;;;;;;5056860;28;20112;-71
2023/05/12 07:08:25;;;;;;;2.40;2.20;;;17.80;39.30;;;;;;5056487;28;20067;-72
2023/05/12 07:10:51;;;;;;;3.47;1.90;;;17.90;39.30;;;;;;5056583;28;20070;-72
2023/05/12 07:13:17;;;;;;;4.90;2.10;;;17.90;39.20;;;;;;5056072;28;20029;-72
2023/05/12 07:15:43;;;;;;;2.58;2.28;;;17.90;39.10;;;;;;5056235;28;20040;-71
2023/05/12 07:18:09;;;;;;;2.05;1.95;;;18.00;39.10;;;;;;5056355;28;20033;-72
2023/05/12 07:20:34;;;;;;;2.65;2.25;;;18.00;39.10;;;;;;5056745;28;20025;-73
2023/05/12 07:23:00;;;;;;;2.40;2.20;;;18.00;39.00;;;;;;5056180;28;20104;-72
2023/05/12 07:25:27;;;;;;;3.20;2.00;;;18.00;39.00;;;;;;5056256;28;20032;-72
2023/05/12 07:27:52;;;;;;;2.33;1.98;;;18.10;39.10;;;;;;5056335;28;20021;-72
2023/05/12 07:30:18;;;;;;;2.60;1.92;;;18.10;39.10;;;;;;5056167;28;20049;-72
2023/05/12 07:32:45;;;;;;;2.53;2.10;;;18.10;39.10;;;;;;5056425;28;20103;-72
2023/05/12 07:35:11;;;;;;;3.53;2.10;;;18.10;39.10;;;;;;5056164;28;20419;-72
2023/05/12 07:37:37;;;;;;;2.25;2.05;;;18.10;39.10;;;;;;5055961;28;20503;-73
2023/05/12 07:40:03;;;;;;;2.30;2.10;;;18.10;39.00;;;;;;5054771;28;20113;-72
2023/05/12 07:42:29;;;;;;;2.28;2.00;;;18.20;39.00;;;;;;5055157;28;20087;-72
2023/05/12 07:44:55;;;;;;;2.35;1.92;;;18.20;39.00;;;;;;5055791;28;20029;-72
2023/05/12 07:47:21;;;;;;;2.20;2.00;;;18.20;39.00;;;;;;5055674;28;20413;-72
2023/05/12 07:49:46;;;;;;;2.10;1.92;;;18.30;39.10;;;;;;5055806;28;20021;-72
2023/05/12 07:52:12;;;;;;;2.67;1.90;;;18.30;39.00;;;;;;5055628;28;20068;-72
2023/05/12 07:54:37;;;;;;;2.15;1.95;;;18.30;39.00;;;;;;5055710;28;20029;-72
2023/05/12 07:57:03;;;;;;;2.03;1.80;;;18.30;38.90;;;;;;5054095;28;20083;-71
2023/05/12 07:59:29;;;;;;;2.30;2.10;;;18.40;39.00;;;;;;5055391;28;20479;-72
2023/05/12 08:01:55;;;;;;;2.10;1.90;;;18.40;39.00;;;;;;5055549;28;20340;-72
2023/05/12 08:04:21;;;;;;;2.60;2.20;;;18.40;38.90;;;;;;5054590;28;20052;-72
2023/05/12 08:06:46;;;;;;;1.80;1.70;;;18.50;38.90;;;;;;5055452;28;20029;-71
2023/05/12 08:09:12;;;;;;;1.90;1.80;;;18.50;38.90;;;;;;5055467;28;20104;-72
2023/05/12 08:11:38;;;;;;;2.58;2.10;;;18.50;38.80;;;;;;5055357;28;20021;-71
2023/05/12 08:14:05;;;;;;;2.13;1.92;;;18.50;38.70;;;;;;5055752;28;20033;-72
2023/05/12 08:16:31;;;;;;;2.45;1.95;;;18.60;38.70;;;;;;5054976;28;20468;-72
2023/05/12 08:18:57;;;;;;;2.20;2.00;;;18.60;38.60;;;;;;5055187;28;20514;-73
2023/05/12 08:21:23;;;;;;;2.10;1.90;;;18.60;38.60;;;;;;5054881;28;20547;-72
2023/05/12 08:23:48;;;;;;;2.72;1.92;;;18.60;38.50;;;;;;5055116;28;20116;-73
2023/05/12 08:26:14;;;;;;;2.00;1.90;;;18.70;38.50;;;;;;5055084;28;20082;-72
2023/05/12 08:28:40;;;;;;;2.47;2.00;;;18.70;38.40;;;;;;5055139;28;20037;-72
2023/05/12 08:31:06;;;;;;;1.95;1.75;;;18.70;38.30;;;;;;5053534;28;20053;-72
2023/05/12 08:33:34;;;;;;;2.17;1.98;;;18.70;38.20;;;;;;5054801;28;20098;-73
2023/05/12 08:36:00;;;;;;;1.80;1.70;;;18.80;38.20;;;;;;5053577;28;20036;-72
2023/05/12 08:38:26;;;;;;;3.25;1.90;;;18.80;38.00;;;;;;5054575;28;20103;-72
2023/05/12 08:41:18;;;;;;;2.00;1.80;;;18.80;38.00;;;;;;5054381;28;20098;-72
2023/05/12 08:43:48;;;;;;;2.10;1.90;;;18.80;37.80;;;;;;5054866;28;20032;-72
2023/05/12 08:46:15;;;;;;;2.13;1.85;;;18.90;37.70;;;;;;5054744;28;20029;-71
2023/05/12 08:48:43;;;;;;;2.58;1.65;;;18.90;37.60;;;;;;5054583;28;20036;-72
2023/05/12 08:51:10;;;;;;;2.28;1.80;;;18.90;37.50;;;;;;5054158;28;20112;-72
2023/05/12 08:53:41;;;;;;;2.63;1.73;;;18.90;37.40;;;;;;5054918;28;20036;-72
2023/05/12 08:56:10;;;;;;;2.13;1.88;;;18.90;37.40;;;;;;5054394;28;20029;-72
2023/05/12 08:58:36;;;;;;;2.22;1.90;;;19.00;37.40;;;;;;5054386;28;20027;-71
2023/05/12 09:01:06;;;;;;;2.05;1.70;;;19.00;37.40;;;;;;5054102;28;20518;-72
2023/05/12 09:03:34;;;;;;;1.80;1.70;;;19.00;37.30;;;;;;5054273;28;20112;-72
2023/05/12 09:06:01;;;;;;;2.53;1.75;;;19.00;37.40;;;;;;5053995;28;20029;-72
2023/05/12 09:08:29;;;;;;;1.90;1.70;;;19.10;37.40;;;;;;5054696;28;20036;-72
2023/05/12 09:10:56;;;;;;;1.80;1.70;;;19.10;37.30;;;;;;5052829;28;20032;-72
2023/05/12 09:13:59;;;;;;;2.85;1.70;;;19.10;37.20;;;;;;5054136;28;20048;-72
2023/05/12 09:16:27;;;;;;;2.78;1.67;;;19.10;37.00;;;;;;5053992;28;20128;-72
2023/05/12 09:18:56;;;;;;;1.73;1.63;;;19.10;37.00;;;;;;5054236;28;20029;-72
2023/05/12 09:21:22;;;;;;;2.40;1.90;;;19.10;36.80;;;;;;5054231;28;20033;-73
2023/05/12 09:23:57;;;;;;;2.15;1.60;;;19.20;36.90;;;;;;5053839;28;20033;-72
2023/05/12 09:26:24;;;;;;;2.55;2.08;;;19.20;37.50;;;;;;5053762;28;20060;-72
2023/05/12 09:28:52;;;;;;;2.78;1.70;;;19.20;36.80;;;;;;5052683;28;20029;-72
2023/05/12 09:31:21;;;;;;;2.05;1.55;;;19.20;36.80;;;;;;5053743;28;20049;-72
2023/05/12 09:33:49;;;;;;;3.08;2.00;;;19.20;36.80;;;;;;5053754;28;20025;-72
2023/05/12 09:36:22;;;;;;;2.92;2.05;;;19.30;36.80;;;;;;5053763;28;20116;-72
2023/05/12 09:39:05;;;;;;;2.17;1.90;;;19.30;36.80;;;;;;5053555;28;20025;-72
2023/05/12 09:41:35;;;;;;;2.53;1.75;;;19.30;36.60;;;;;;5053646;28;20033;-72
2023/05/12 09:44:01;;;;;;;1.77;1.67;;;19.40;36.70;;;;;;5053617;28;20029;-72
2023/05/12 09:46:27;;;;;;;2.35;1.70;;;19.40;36.60;;;;;;5053648;28;20028;-71
2023/05/12 09:48:56;;;;;;;2.25;2.00;;;19.40;36.50;;;;;;5053619;28;20044;-72
2023/05/12 09:51:23;;;;;;;2.05;1.80;;;19.40;36.50;;;;;;5053483;28;20032;-71
2023/05/12 09:53:48;;;;;;;2.03;1.80;;;19.40;36.50;;;;;;5053295;28;20071;-71
2023/05/12 09:56:17;;;;;;;2.05;1.77;;;19.50;36.50;;;;;;5053734;28;20029;-72
2023/05/12 09:58:47;;;;;;;1.63;1.52;;;19.40;36.40;;;;;;5053621;28;20107;-71
2023/05/12 10:01:14;;;;;;;1.90;1.67;;;19.50;36.40;;;;;;5053371;28;20053;-71
2023/05/12 10:03:47;;;;;;;2.13;1.50;;;19.50;36.40;;;;;;5053540;28;20025;-71
2023/05/12 10:06:27;;;;;;;1.75;1.65;;;19.50;36.30;;;;;;5053223;28;20024;-72
2023/05/12 10:09:04;;;;;;;2.00;1.80;;;19.60;36.30;;;;;;5053649;28;20483;-72
2023/05/12 10:11:31;;;;;;;2.05;1.65;;;19.60;36.20;;;;;;5053469;28;20029;-73
2023/05/12 10:13:58;;;;;;;1.80;1.70;;;19.70;36.20;;;;;;5053376;28;20064;-72
2023/05/12 10:16:26;;;;;;;2.28;1.67;;;19.70;36.20;;;;;;5052318;28;20029;-73
2023/05/12 10:18:53;;;;;;;2.28;1.80;;;19.70;36.10;;;;;;5053446;28;20489;-72
2023/05/12 10:21:20;;;;;;;3.72;1.90;;;19.70;36.00;;;;;;5053363;28;20086;-71
2023/05/12 10:23:46;;;;;;;3.17;1.83;;;19.80;36.10;;;;;;5053178;28;20028;-71
2023/05/12 10:26:13;;;;;;;2.05;1.80;;;19.80;36.00;;;;;;5053585;28;20078;-72
2023/05/12 10:28:38;;;;;;;1.90;1.60;;;19.80;35.90;;;;;;5057562;28;20173;-72
2023/05/12 10:31:06;;;;;;;2.15;1.80;;;19.90;35.90;;;;;;5057746;28;20561;-74
2023/05/12 10:33:32;;;;;;;1.60;1.50;;;19.90;35.90;;;;;;5055920;28;20025;-72
2023/05/12 10:35:58;;;;;;;2.08;1.70;;;19.90;35.80;;;;;;5056962;28;20032;-74
2023/05/12 10:38:24;;;;;;;2.95;2.00;;;20.00;35.80;;;;;;5056958;28;20052;-72
2023/05/12 10:41:05;;;;;;;2.67;1.58;;;20.00;35.70;;;;;;5056748;28;20162;-72
2023/05/12 10:43:42;;;;;;;1.60;1.50;;;20.10;35.70;;;;;;5057024;28;20029;-72
2023/05/12 10:46:09;;;;;;;2.22;1.80;;;20.10;35.60;;;;;;5056876;28;20029;-72
2023/05/12 10:48:37;;;;;;;2.25;1.90;;;20.10;35.60;;;;;;5056886;28;20028;-72
2023/05/12 10:51:10;;;;;;;2.15;1.70;;;20.10;35.60;;;;;;5056859;28;20064;-72
2023/05/12 10:53:37;;;;;;;1.70;1.60;;;20.20;35.50;;;;;;5055458;28;20028;-72
2023/05/12 10:56:04;;;;;;;1.83;1.45;;;20.20;35.60;;;;;;5056451;28;20083;-72
2023/05/12 10:58:30;;;;;;;1.73;1.60;;;20.20;35.50;;;;;;5055370;28;20371;-73
2023/05/12 11:01:06;;;;;;;2.60;1.45;;;20.30;35.50;;;;;;5056581;28;20036;-72
2023/05/12 11:03:32;;;;;;;1.90;1.70;;;20.30;35.50;;;;;;5056750;28;20108;-72
2023/05/12 11:06:05;;;;;;;1.77;1.60;;;20.30;35.40;;;;;;5056457;28;20029;-73
2023/05/12 11:08:33;;;;;;;2.00;1.58;;;20.30;35.40;;;;;;5056174;28;20025;-72
2023/05/12 11:11:02;;;;;;;2.45;1.60;;;20.40;35.40;;;;;;5056396;28;20500;-72
2023/05/12 11:13:28;;;;;;;2.85;1.38;;;20.40;35.40;;;;;;5056707;28;20061;-72
2023/05/12 11:15:56;;;;;;;1.48;1.38;;;20.40;35.40;;;;;;5056448;28;20029;-73
2023/05/12 11:18:22;;;;;;;1.75;1.40;;;20.40;35.20;;;;;;5056208;28;20037;-73
2023/05/12 11:20:49;;;;;;;1.70;1.60;;;20.50;35.30;;;;;;5056038;28;20033;-72
2023/05/12 11:23:27;;;;;;;1.55;1.45;;;20.50;35.30;;;;;;5054598;28;20025;-73
2023/05/12 11:25:53;;;;;;;4.28;1.90;;;20.50;35.20;;;;;;5056286;28;20079;-71
2023/05/12 11:28:18;;;;;;;1.80;1.70;;;20.50;35.20;;;;;;5055890;28;20037;-71
2023/05/12 11:30:49;;;;;;;1.83;1.73;;;20.50;35.20;;;;;;5056136;28;20136;-72
2023/05/12 11:33:20;;;;;;;1.70;1.52;;;20.50;35.20;;;;;;5054880;28;20029;-72
2023/05/12 11:35:45;;;;;;;3.10;1.73;;;20.50;35.20;;;;;;5055705;28;20035;-73
2023/05/12 11:38:18;;;;;;;1.80;1.70;;;20.50;35.20;;;;;;5054461;28;20203;-72
2023/05/12 11:40:44;;;;;;;3.45;1.90;;;20.50;35.10;;;;;;5055664;28;20046;-72
2023/05/12 11:43:13;;;;;;;1.75;1.60;;;20.50;35.10;;;;;;5055768;28;20426;-72
2023/05/12 11:45:39;;;;;;;1.83;1.70;;;20.60;35.10;;;;;;5055640;28;20033;-70
2023/05/12 11:48:14;;;;;;;2.13;1.80;;;20.60;35.20;;;;;;5055642;28;20025;-73
2023/05/12 11:50:42;;;;;;;1.83;1.70;;;20.60;34.90;;;;;;5055575;28;20107;-73
2023/05/12 11:53:14;;;;;;;1.83;1.60;;;20.60;34.90;;;;;;5055709;28;20029;-72
2023/05/12 11:55:54;;;;;;;3.45;1.48;;;20.60;34.90;;;;;;5054453;28;20471;-72
2023/05/12 11:58:29;;;;;;;2.40;1.75;;;20.60;34.90;;;;;;5055397;28;20025;-72
2023/05/12 12:00:56;;;;;;;3.25;1.77;;;20.70;34.90;;;;;;5054324;28;20376;-72
2023/05/12 12:03:23;;;;;;;2.10;1.50;;;20.60;34.90;;;;;;5054262;28;20029;-72
2023/05/12 12:06:02;;;;;;;3.70;1.90;;;20.70;34.90;;;;;;5055123;28;20029;-71
2023/05/12 12:08:28;;;;;;;3.20;1.60;;;20.70;34.70;;;;;;5055935;28;20028;-72
2023/05/12 12:10:54;;;;;;;2.45;1.83;;;20.70;34.80;;;;;;5055157;28;20025;-73
2023/05/12 12:13:21;;;;;;;1.85;1.75;;;20.80;34.80;;;;;;5055086;28;20025;-72
2023/05/12 12:15:48;;;;;;;2.33;1.63;;;20.80;34.70;;;;;;5054300;28;20033;-71
2023/05/12 12:18:15;;;;;;;1.65;1.55;;;20.80;34.70;;;;;;5055402;28;20033;-72
2023/05/12 12:20:41;;;;;;;3.75;1.67;;;20.90;34.70;;;;;;5055027;28;20502;-72
2023/05/12 12:23:07;;;;;;;1.83;1.70;;;20.90;34.60;;;;;;5054939;28;20029;-72
2023/05/12 12:25:32;;;;;;;4.13;1.85;;;21.00;34.60;;;;;;5055080;28;20025;-71
2023/05/12 12:27:58;;;;;;;1.63;1.52;;;21.00;34.40;;;;;;5054998;28;20029;-72
2023/05/12 12:30:24;;;;;;;2.13;1.60;;;21.10;34.40;;;;;;5054729;28;20102;-73
2023/05/12 12:32:49;;;;;;;2.30;1.50;;;21.10;34.30;;;;;;5055007;28;20029;-72
2023/05/12 12:35:16;;;;;;;1.95;1.48;;;21.20;34.30;;;;;;5054769;28;20027;-73
2023/05/12 12:37:41;;;;;;;2.10;1.77;;;21.30;34.30;;;;;;5054639;28;20047;-72
2023/05/12 12:40:08;;;;;;;3.30;1.80;;;21.40;34.20;;;;;;5054669;28;20025;-72
2023/05/12 12:42:35;;;;;;;1.75;1.63;;;21.50;34.20;;;;;;5054628;28;20543;-73
2023/05/12 12:45:07;;;;;;;1.90;1.63;;;21.50;34.00;;;;;;5053317;28;20371;-74
2023/05/12 12:47:33;;;;;;;1.60;1.50;;;21.60;33.90;;;;;;5054887;28;20033;-71